createdAt,value
2022-08-29T00:00:17.625Z,99.90
2022-08-29T00:02:49.870Z,99.90
2022-08-29T00:05:19.143Z,99.90
2022-08-29T00:07:45.975Z,99.90
2022-08-29T00:10:13.294Z,99.90
2022-08-29T00:12:39.951Z,99.90
2022-08-29T00:15:09.030Z,99.90
2022-08-29T00:17:35.711Z,99.90
2022-08-29T00:20:03.016Z,99.90
2022-08-29T00:22:29.600Z,99.90
2022-08-29T00:24:56.297Z,99.90
2022-08-29T00:27:22.882Z,99.90
2022-08-29T00:29:49.478Z,99.90
2022-08-29T00:32:16.102Z,99.90
2022-08-29T00:34:42.709Z,99.90
2022-08-29T00:37:09.273Z,99.90
2022-08-29T00:39:37.234Z,99.90
2022-08-29T00:42:05.346Z,99.90
2022-08-29T00:44:32.625Z,99.90
2022-08-29T00:47:06.990Z,99.90
2022-08-29T00:49:44.235Z,99.90
2022-08-29T00:52:22.323Z,99.90
2022-08-29T00:54:52.524Z,99.90
2022-08-29T00:57:21.238Z,99.90
2022-08-29T00:59:50.705Z,99.90
2022-08-29T01:02:17.778Z,99.90
2022-08-29T01:04:45.606Z,99.90
2022-08-29T01:07:12.748Z,99.90
2022-08-29T01:09:42.452Z,99.90
2022-08-29T01:12:18.037Z,99.90
2022-08-29T01:14:58.034Z,99.90
2022-08-29T01:17:29.576Z,99.90
2022-08-29T01:20:23.808Z,99.90
2022-08-29T01:23:10.693Z,99.90
2022-08-29T01:25:44.483Z,99.90
2022-08-29T01:28:28.574Z,99.90
2022-08-29T01:31:09.352Z,99.90
2022-08-29T01:33:41.446Z,99.90
2022-08-29T01:36:10.608Z,99.90
2022-08-29T01:38:38.302Z,99.90
2022-08-29T01:41:05.778Z,99.90
2022-08-29T01:43:40.039Z,99.90
2022-08-29T01:46:06.843Z,99.90
2022-08-29T01:48:35.430Z,99.90
2022-08-29T01:51:02.019Z,99.90
2022-08-29T01:53:28.685Z,99.90
2022-08-29T01:55:55.266Z,99.90
2022-08-29T01:58:22.149Z,99.90
2022-08-29T02:00:49.589Z,99.90
2022-08-29T02:03:17.926Z,99.90
2022-08-29T02:05:47.452Z,99.90
2022-08-29T02:08:14.148Z,99.90
2022-08-29T02:10:40.949Z,99.90
2022-08-29T02:13:07.538Z,99.90
2022-08-29T02:15:34.213Z,99.90
2022-08-29T02:18:00.820Z,99.90
2022-08-29T02:20:27.672Z,99.90
2022-08-29T02:22:54.265Z,99.90
2022-08-29T02:25:39.402Z,99.90
2022-08-29T02:28:05.983Z,99.90
2022-08-29T02:30:32.873Z,99.90
2022-08-29T02:32:59.471Z,99.90
2022-08-29T02:35:26.349Z,99.90
2022-08-29T02:37:54.645Z,99.90
2022-08-29T02:40:25.930Z,99.90
2022-08-29T02:42:59.190Z,99.90
2022-08-29T02:45:26.069Z,99.90
2022-08-29T02:47:52.824Z,99.90
2022-08-29T02:50:19.761Z,99.90
2022-08-29T02:52:46.369Z,99.90
2022-08-29T02:55:18.118Z,99.90
2022-08-29T02:57:45.003Z,99.90
2022-08-29T03:00:18.556Z,99.90
2022-08-29T03:02:47.235Z,99.90
2022-08-29T03:05:15.573Z,99.90
2022-08-29T03:07:42.542Z,99.90
2022-08-29T03:10:09.685Z,99.90
2022-08-29T03:12:37.426Z,99.90
2022-08-29T03:15:06.566Z,99.90
2022-08-29T03:17:33.170Z,99.90
2022-08-29T03:20:00.725Z,99.90
2022-08-29T03:22:28.106Z,99.90
2022-08-29T03:24:54.683Z,99.90
2022-08-29T03:27:22.843Z,99.90
2022-08-29T03:29:49.415Z,99.90
2022-08-29T03:32:16.008Z,99.90
2022-08-29T03:34:42.616Z,99.90
2022-08-29T03:37:09.198Z,99.90
2022-08-29T03:39:37.830Z,99.90
2022-08-29T03:42:06.413Z,99.90
2022-08-29T03:44:34.583Z,99.90
2022-08-29T03:47:01.379Z,99.90
2022-08-29T03:49:28.348Z,99.90
2022-08-29T03:51:54.990Z,99.90
2022-08-29T03:54:22.082Z,99.90
2022-08-29T03:56:48.815Z,99.90
2022-08-29T03:59:16.514Z,99.90
2022-08-29T04:01:43.317Z,99.90
2022-08-29T04:04:30.090Z,99.90
2022-08-29T04:06:56.711Z,99.90
2022-08-29T04:09:23.270Z,99.90
2022-08-29T04:11:49.837Z,99.90
2022-08-29T04:14:16.428Z,99.90
2022-08-29T04:16:48.416Z,99.90
2022-08-29T04:19:15.285Z,99.90
2022-08-29T04:21:41.856Z,99.90
2022-08-29T04:24:08.662Z,99.90
2022-08-29T04:26:37.436Z,99.90
2022-08-29T04:29:06.152Z,99.90
2022-08-29T04:31:32.858Z,99.90
2022-08-29T04:33:59.519Z,99.90
2022-08-29T04:36:26.390Z,99.90
2022-08-29T04:38:54.307Z,99.90
2022-08-29T04:41:21.200Z,99.90
2022-08-29T04:43:48.342Z,99.90
2022-08-29T04:46:23.479Z,99.90
2022-08-29T04:48:50.862Z,99.90
2022-08-29T04:51:17.601Z,99.90
2022-08-29T04:53:44.834Z,99.90
2022-08-29T04:56:13.715Z,99.90
2022-08-29T04:58:44.121Z,99.90
2022-08-29T05:01:15.865Z,99.90
2022-08-29T05:03:43.242Z,99.90
2022-08-29T05:06:12.218Z,99.90
2022-08-29T05:08:41.039Z,99.90
2022-08-29T05:11:12.161Z,99.90
2022-08-29T05:13:38.905Z,99.90
2022-08-29T05:16:12.622Z,99.90
2022-08-29T05:18:40.290Z,99.90
2022-08-29T05:21:07.041Z,99.90
2022-08-29T05:23:34.293Z,99.90
2022-08-29T05:26:04.616Z,99.90
2022-08-29T05:28:33.832Z,99.90
2022-08-29T05:31:00.890Z,99.90
2022-08-29T05:33:27.586Z,99.90
2022-08-29T05:35:54.276Z,99.90
2022-08-29T05:38:21.305Z,99.90
2022-08-29T05:40:47.962Z,99.90
2022-08-29T05:43:14.750Z,99.90
2022-08-29T05:45:41.787Z,99.90
2022-08-29T05:48:09.551Z,99.90
2022-08-29T05:50:42.016Z,99.90
2022-08-29T05:53:16.723Z,99.90
2022-08-29T05:55:44.626Z,99.90
2022-08-29T05:58:12.350Z,99.90
2022-08-29T06:00:42.472Z,99.90
2022-08-29T06:03:11.186Z,99.90
2022-08-29T06:05:39.096Z,99.90
2022-08-29T06:08:06.488Z,99.90
2022-08-29T06:10:34.128Z,99.90
2022-08-29T06:13:00.715Z,99.90
2022-08-29T06:15:29.768Z,99.90
2022-08-29T06:17:56.422Z,99.90
2022-08-29T06:20:23.038Z,99.90
2022-08-29T06:22:49.619Z,99.90
2022-08-29T06:25:37.834Z,99.90
2022-08-29T06:28:03.012Z,99.90
2022-08-29T06:30:32.256Z,99.90
2022-08-29T06:32:59.679Z,99.90
2022-08-29T06:35:26.263Z,99.90
2022-08-29T06:37:52.853Z,99.90
2022-08-29T06:40:19.502Z,99.90
2022-08-29T06:42:46.144Z,99.90
2022-08-29T06:45:12.743Z,99.90
2022-08-29T06:47:39.301Z,99.90
2022-08-29T06:50:06.784Z,99.90
2022-08-29T06:52:33.354Z,99.90
2022-08-29T06:55:02.707Z,99.90
2022-08-29T06:57:29.281Z,99.90
2022-08-29T06:59:55.876Z,99.90
2022-08-29T07:02:22.602Z,99.90
2022-08-29T07:04:49.270Z,99.90
2022-08-29T07:07:15.898Z,99.90
2022-08-29T07:09:42.573Z,99.90
2022-08-29T07:12:09.212Z,99.90
2022-08-29T07:14:35.787Z,99.90
2022-08-29T07:17:02.365Z,99.90
2022-08-29T07:19:28.958Z,99.90
2022-08-29T07:21:58.431Z,99.90
2022-08-29T07:24:25.474Z,99.90
2022-08-29T07:26:52.159Z,99.90
2022-08-29T07:29:21.154Z,99.90
2022-08-29T07:31:48.185Z,99.90
2022-08-29T07:34:14.982Z,99.90
2022-08-29T07:36:41.877Z,99.90
2022-08-29T07:39:12.537Z,99.90
2022-08-29T07:41:41.148Z,99.90
2022-08-29T07:44:08.099Z,99.90
2022-08-29T07:46:35.422Z,99.90
2022-08-29T07:49:02.098Z,99.90
2022-08-29T07:51:29.389Z,99.90
2022-08-29T07:53:57.168Z,99.90
2022-08-29T07:56:33.397Z,99.90
2022-08-29T07:59:03.984Z,99.90
2022-08-29T08:01:30.711Z,99.90
2022-08-29T08:03:58.268Z,99.90
2022-08-29T08:06:27.284Z,99.90
2022-08-29T08:08:55.221Z,99.90
2022-08-29T08:11:23.044Z,99.90
2022-08-29T08:13:49.960Z,99.90
2022-08-29T08:16:20.422Z,99.90
2022-08-29T08:18:47.717Z,99.90
2022-08-29T08:21:14.307Z,99.90
2022-08-29T08:23:41.609Z,99.90
2022-08-29T08:26:10.144Z,99.90
2022-08-29T08:28:37.669Z,99.90
2022-08-29T08:31:07.254Z,99.90
2022-08-29T08:33:38.651Z,99.90
2022-08-29T08:36:30.979Z,99.90
2022-08-29T08:38:59.418Z,99.90
2022-08-29T08:41:58.088Z,99.90
2022-08-29T08:44:24.971Z,99.90
2022-08-29T08:46:58.170Z,99.90
2022-08-29T08:49:31.966Z,99.90
2022-08-29T08:52:03.674Z,99.90
2022-08-29T08:54:34.806Z,99.90
2022-08-29T08:57:07.957Z,99.90
2022-08-29T08:59:43.708Z,99.90
2022-08-29T09:02:45.310Z,99.90
2022-08-29T09:05:31.118Z,99.90
2022-08-29T09:08:16.459Z,99.90
2022-08-29T09:10:58.535Z,99.90
2022-08-29T09:13:46.533Z,99.90
2022-08-29T09:16:18.121Z,99.90
2022-08-29T09:18:49.876Z,99.90
2022-08-29T09:21:40.592Z,99.90
2022-08-29T09:24:14.398Z,99.90
2022-08-29T09:26:41.366Z,99.90
2022-08-29T09:29:09.970Z,99.90
2022-08-29T09:31:37.511Z,99.90
2022-08-29T09:34:08.366Z,99.90
2022-08-29T09:36:41.870Z,99.90
2022-08-29T09:39:24.235Z,99.90
2022-08-29T09:41:57.327Z,99.90
2022-08-29T09:44:29.386Z,99.90
2022-08-29T09:47:20.990Z,99.90
2022-08-29T09:50:09.000Z,99.90
2022-08-29T09:52:39.162Z,99.90
2022-08-29T09:55:22.970Z,99.90
2022-08-29T09:57:53.430Z,99.90
2022-08-29T10:00:27.028Z,99.90
2022-08-29T10:02:56.817Z,99.90
2022-08-29T10:05:41.468Z,99.90
2022-08-29T10:08:24.462Z,99.90
2022-08-29T10:10:59.609Z,99.90
2022-08-29T10:13:47.028Z,99.90
2022-08-29T10:16:26.996Z,99.90
2022-08-29T10:19:04.840Z,99.90
2022-08-29T10:21:34.689Z,99.90
2022-08-29T10:24:05.407Z,99.90
2022-08-29T10:26:56.237Z,99.90
2022-08-29T10:29:48.022Z,99.90
2022-08-29T10:32:25.343Z,99.90
2022-08-29T10:35:04.883Z,99.90
2022-08-29T10:37:56.447Z,99.90
2022-08-29T10:40:43.617Z,99.90
2022-08-29T10:43:38.365Z,99.90
2022-08-29T10:46:33.395Z,99.90
2022-08-29T10:49:23.853Z,99.90
2022-08-29T10:52:17.806Z,99.90
2022-08-29T10:55:26.830Z,99.90
2022-08-29T10:58:02.964Z,99.90
2022-08-29T11:00:47.248Z,99.90
2022-08-29T11:03:49.783Z,99.90
2022-08-29T11:09:24.081Z,99.90
2022-08-29T11:12:17.585Z,99.90
2022-08-29T11:15:03.184Z,99.90
2022-08-29T11:17:35.968Z,99.90
2022-08-29T11:20:11.418Z,99.90
2022-08-29T11:22:48.431Z,99.90
2022-08-29T11:25:18.430Z,99.90
2022-08-29T11:28:04.284Z,99.90
2022-08-29T11:30:53.232Z,99.90
2022-08-29T11:33:47.663Z,99.90
2022-08-29T11:36:35.522Z,99.90
2022-08-29T11:39:17.223Z,99.90
2022-08-29T11:41:48.013Z,99.90
2022-08-29T11:44:32.221Z,99.90
2022-08-29T11:46:59.611Z,99.90
2022-08-29T11:49:36.401Z,99.90
2022-08-29T11:52:09.022Z,99.90
2022-08-29T11:54:35.618Z,99.90
2022-08-29T11:57:02.412Z,99.90
2022-08-29T11:59:50.672Z,99.90
2022-08-29T12:02:32.344Z,99.90
2022-08-29T12:04:59.850Z,99.90
2022-08-29T12:07:47.238Z,99.90
2022-08-29T12:10:29.068Z,99.90
2022-08-29T12:13:04.558Z,99.90
2022-08-29T12:15:34.225Z,99.90
2022-08-29T12:18:09.733Z,99.90
2022-08-29T12:20:41.704Z,99.90
2022-08-29T12:23:11.501Z,99.90
2022-08-29T12:28:56.241Z,99.90
2022-08-29T12:31:30.647Z,99.90
2022-08-29T12:34:18.828Z,99.90
2022-08-29T12:37:14.053Z,99.90
2022-08-29T12:40:01.461Z,99.90
2022-08-29T12:42:37.412Z,99.90
2022-08-29T12:45:06.555Z,99.90
2022-08-29T12:47:47.749Z,99.90
2022-08-29T12:50:27.618Z,99.90
2022-08-29T12:53:03.846Z,99.90
2022-08-29T12:55:39.830Z,99.90
2022-08-29T12:58:09.167Z,99.90
2022-08-29T13:00:36.820Z,99.90
2022-08-29T13:03:15.060Z,99.90
2022-08-29T13:05:43.255Z,99.90
2022-08-29T13:08:25.734Z,99.90
2022-08-29T13:10:58.754Z,99.90
2022-08-29T13:13:26.405Z,99.90
2022-08-29T13:16:01.276Z,99.90
2022-08-29T13:18:29.384Z,99.90
2022-08-29T13:21:11.039Z,99.90
2022-08-29T13:23:45.887Z,99.90
2022-08-29T13:26:13.221Z,99.90
2022-08-29T13:28:53.364Z,99.90
2022-08-29T13:31:21.257Z,99.90
2022-08-29T13:33:50.775Z,99.90
2022-08-29T13:36:59.340Z,99.90
2022-08-29T13:39:41.160Z,99.90
2022-08-29T13:42:13.518Z,99.90
2022-08-29T13:44:49.265Z,99.90
2022-08-29T13:47:22.944Z,99.90
2022-08-29T13:49:51.075Z,99.90
2022-08-29T13:52:18.979Z,99.90
2022-08-29T13:54:45.647Z,99.90
2022-08-29T13:57:18.342Z,99.90
2022-08-29T13:59:45.084Z,99.90
2022-08-29T14:02:14.559Z,99.90
2022-08-29T14:04:43.174Z,99.90
2022-08-29T14:07:14.076Z,99.90
2022-08-29T14:09:44.309Z,99.90
2022-08-29T14:12:10.954Z,99.90
2022-08-29T14:14:37.550Z,99.90
2022-08-29T14:17:04.910Z,99.90
2022-08-29T14:19:32.103Z,99.90
2022-08-29T14:22:02.186Z,99.90
2022-08-29T14:24:30.752Z,99.90
2022-08-29T14:27:01.586Z,99.90
2022-08-29T14:29:33.180Z,99.90
2022-08-29T14:32:02.845Z,99.90
2022-08-29T14:34:32.270Z,99.90
2022-08-29T14:37:00.136Z,99.90
2022-08-29T14:39:26.780Z,99.90
2022-08-29T14:41:54.118Z,99.90
2022-08-29T14:44:21.847Z,99.90
2022-08-29T14:46:49.458Z,99.90
2022-08-29T14:49:16.898Z,99.90
2022-08-29T14:51:44.349Z,99.90
2022-08-29T14:54:11.864Z,99.90
2022-08-29T14:56:48.794Z,99.90
2022-08-29T14:59:17.730Z,99.90
2022-08-29T15:01:44.420Z,99.90
2022-08-29T15:04:11.292Z,99.90
2022-08-29T15:06:40.937Z,99.90
2022-08-29T15:09:07.586Z,99.90
2022-08-29T15:11:34.371Z,99.90
2022-08-29T15:14:04.479Z,99.90
2022-08-29T15:16:32.025Z,99.90
2022-08-29T15:21:45.896Z,99.90
2022-08-29T15:24:12.472Z,99.90
2022-08-29T15:26:39.421Z,99.90
2022-08-29T15:29:06.046Z,99.90
2022-08-29T15:31:32.886Z,99.90
2022-08-29T15:34:00.213Z,99.90
2022-08-29T15:36:26.789Z,99.70
2022-08-29T15:38:53.655Z,99.70
2022-08-29T15:41:20.241Z,99.70
2022-08-29T15:43:46.994Z,98.90
2022-08-29T15:46:13.793Z,99.60
2022-08-29T15:48:40.453Z,99.60
2022-08-29T15:51:07.048Z,99.60
2022-08-29T15:53:33.664Z,99.70
2022-08-29T15:56:00.281Z,99.80
2022-08-29T15:58:26.969Z,99.70
2022-08-29T16:00:53.635Z,99.80
2022-08-29T16:03:20.360Z,99.90
2022-08-29T16:05:46.947Z,99.90
2022-08-29T16:08:17.732Z,99.90
2022-08-29T16:10:45.738Z,99.90
2022-08-29T16:13:12.465Z,99.90
2022-08-29T16:15:39.063Z,99.90
2022-08-29T16:18:06.649Z,99.90
2022-08-29T16:20:34.441Z,99.90
2022-08-29T16:23:01.953Z,99.90
2022-08-29T16:25:31.018Z,99.90
2022-08-29T16:27:57.868Z,99.90
2022-08-29T16:30:24.926Z,99.90
2022-08-29T16:32:51.726Z,99.90
2022-08-29T16:35:19.389Z,99.90
2022-08-29T16:37:46.159Z,99.70
2022-08-29T16:40:20.329Z,99.30
2022-08-29T16:42:55.402Z,99.20
2022-08-29T16:45:22.944Z,99.20
2022-08-29T16:47:52.096Z,99.20
2022-08-29T16:50:22.140Z,99.30
2022-08-29T16:52:48.860Z,99.50
2022-08-29T16:55:15.516Z,99.50
2022-08-29T16:58:02.141Z,99.50
2022-08-29T17:00:28.727Z,99.50
2022-08-29T17:02:55.349Z,99.50
2022-08-29T17:05:22.198Z,99.50
2022-08-29T17:07:49.902Z,99.50
2022-08-29T17:10:16.682Z,99.50
2022-08-29T17:12:43.276Z,99.50
2022-08-29T17:15:09.874Z,99.60
2022-08-29T17:17:36.463Z,99.60
2022-08-29T17:20:03.536Z,99.80
2022-08-29T17:22:30.122Z,99.80
2022-08-29T17:24:56.679Z,99.90
2022-08-29T17:27:26.801Z,99.90
2022-08-29T17:29:56.529Z,99.90
2022-08-29T17:32:23.294Z,99.90
2022-08-29T17:34:50.266Z,99.90
2022-08-29T17:37:17.073Z,99.90
2022-08-29T17:39:43.718Z,99.90
2022-08-29T17:42:10.307Z,99.90
2022-08-29T17:44:36.885Z,99.90
2022-08-29T17:47:04.069Z,99.90
2022-08-29T17:49:30.809Z,99.90
2022-08-29T17:51:57.726Z,99.90
2022-08-29T17:54:25.204Z,99.90
2022-08-29T17:56:55.076Z,99.90
2022-08-29T17:59:23.148Z,99.90
2022-08-29T18:01:50.266Z,99.90
2022-08-29T18:04:17.079Z,99.90
2022-08-29T18:06:43.996Z,99.90
2022-08-29T18:09:11.732Z,99.90
2022-08-29T18:11:43.140Z,99.90
2022-08-29T18:14:10.541Z,99.90
2022-08-29T18:16:37.405Z,99.90
2022-08-29T18:19:04.978Z,99.90
2022-08-29T18:21:32.822Z,99.90
2022-08-29T18:24:00.700Z,99.90
2022-08-29T18:26:28.317Z,99.90
2022-08-29T18:28:55.406Z,99.90
2022-08-29T18:31:22.939Z,99.90
2022-08-29T18:34:05.140Z,99.90
2022-08-29T18:36:33.624Z,99.90
2022-08-29T18:39:01.876Z,99.90
2022-08-29T18:41:28.451Z,99.90
2022-08-29T18:43:55.229Z,99.90
2022-08-29T18:46:22.421Z,99.90
2022-08-29T18:48:49.092Z,99.90
2022-08-29T18:51:15.988Z,99.90
2022-08-29T18:53:42.762Z,99.90
2022-08-29T18:56:10.050Z,99.90
2022-08-29T18:58:38.777Z,99.90
2022-08-29T19:01:27.882Z,99.90
2022-08-29T19:03:59.891Z,99.90
2022-08-29T19:06:27.444Z,99.90
2022-08-29T19:08:56.270Z,99.90
2022-08-29T19:11:23.393Z,99.90
2022-08-29T19:13:52.451Z,99.90
2022-08-29T19:16:20.709Z,99.90
2022-08-29T19:18:47.580Z,99.90
2022-08-29T19:21:14.251Z,99.90
2022-08-29T19:23:45.423Z,99.90
2022-08-29T19:26:17.101Z,99.90
2022-08-29T19:28:44.575Z,99.90
2022-08-29T19:31:13.317Z,99.90
2022-08-29T19:33:41.798Z,99.90
2022-08-29T19:36:09.501Z,99.90
2022-08-29T19:38:36.798Z,99.90
2022-08-29T19:41:05.383Z,99.90
2022-08-29T19:43:33.495Z,99.90
2022-08-29T19:46:01.946Z,99.90
2022-08-29T19:48:29.106Z,99.90
2022-08-29T19:50:56.829Z,99.90
2022-08-29T19:53:25.935Z,99.90
2022-08-29T19:55:53.377Z,99.90
2022-08-29T19:58:20.124Z,99.90
2022-08-29T20:00:46.947Z,99.90
2022-08-29T20:03:14.918Z,99.90
2022-08-29T20:05:41.741Z,99.90
2022-08-29T20:08:09.315Z,99.90
2022-08-29T20:10:36.880Z,99.90
2022-08-29T20:13:04.035Z,99.90
2022-08-29T20:15:31.170Z,99.90
2022-08-29T20:18:00.071Z,99.90
2022-08-29T20:20:34.392Z,99.90
2022-08-29T20:23:00.973Z,99.90
2022-08-29T20:25:27.628Z,99.90
2022-08-29T20:27:54.520Z,99.90
2022-08-29T20:30:25.129Z,99.90
2022-08-29T20:32:52.654Z,99.90
2022-08-29T20:35:40.851Z,99.90
2022-08-29T20:38:08.893Z,99.90
2022-08-29T20:40:42.492Z,99.90
2022-08-29T20:43:09.503Z,99.90
2022-08-29T20:45:38.166Z,99.90
2022-08-29T20:48:05.083Z,99.90
2022-08-29T20:50:31.658Z,99.90
2022-08-29T20:52:58.247Z,99.90
2022-08-29T20:55:25.650Z,99.90
2022-08-29T20:57:52.234Z,99.90
2022-08-29T21:00:19.654Z,99.90
2022-08-29T21:03:05.418Z,99.90
2022-08-29T21:05:45.083Z,99.90
2022-08-29T21:08:21.100Z,99.90
2022-08-29T21:10:48.701Z,99.90
2022-08-29T21:13:17.433Z,99.90
2022-08-29T21:15:45.133Z,99.90
2022-08-29T21:18:13.814Z,99.90
2022-08-29T21:20:53.424Z,99.90
2022-08-29T21:23:22.608Z,99.90
2022-08-29T21:25:56.496Z,99.90
2022-08-29T21:28:24.790Z,99.90
2022-08-29T21:30:52.240Z,99.90
2022-08-29T21:33:19.932Z,99.90
2022-08-29T21:35:46.584Z,99.90
2022-08-29T21:38:16.943Z,99.90
2022-08-29T21:40:51.277Z,99.90
2022-08-29T21:43:19.406Z,99.90
2022-08-29T21:45:46.322Z,99.90
2022-08-29T21:48:13.023Z,99.90
2022-08-29T21:50:39.655Z,99.90
2022-08-29T21:53:06.261Z,99.90
2022-08-29T21:55:32.992Z,99.90
2022-08-29T21:58:00.589Z,99.90
2022-08-29T22:00:33.169Z,99.90
2022-08-29T22:03:02.081Z,99.90
2022-08-29T22:05:31.090Z,99.90
2022-08-29T22:07:57.729Z,99.90
2022-08-29T22:10:27.817Z,99.90
2022-08-29T22:12:54.628Z,99.90
2022-08-29T22:15:40.662Z,99.90
2022-08-29T22:18:09.360Z,99.90
2022-08-29T22:20:38.293Z,99.90
2022-08-29T22:23:05.735Z,99.90
2022-08-29T22:25:32.482Z,99.90
2022-08-29T22:27:59.192Z,99.90
2022-08-29T22:30:31.991Z,99.90
2022-08-29T22:33:00.389Z,99.90
2022-08-29T22:35:28.192Z,99.90
2022-08-29T22:37:54.961Z,99.90
2022-08-29T22:40:21.833Z,99.90
2022-08-29T22:42:48.510Z,99.90
2022-08-29T22:45:16.184Z,99.90
2022-08-29T22:47:44.675Z,99.90
2022-08-29T22:50:21.643Z,99.90
2022-08-29T22:52:49.140Z,99.90
2022-08-29T22:55:20.182Z,99.90
2022-08-29T22:57:47.646Z,99.90
2022-08-29T23:00:21.833Z,99.90
2022-08-29T23:02:49.312Z,99.90
2022-08-29T23:05:16.679Z,99.90
2022-08-29T23:07:43.439Z,99.90
2022-08-29T23:10:11.310Z,99.90
2022-08-29T23:12:38.503Z,99.90
2022-08-29T23:15:08.906Z,99.90
2022-08-29T23:17:35.551Z,99.90
2022-08-29T23:20:02.962Z,99.90
2022-08-29T23:22:31.599Z,99.90
2022-08-29T23:24:59.055Z,99.90
2022-08-29T23:27:28.528Z,99.90
2022-08-29T23:29:55.457Z,99.90
2022-08-29T23:32:22.318Z,99.90
2022-08-29T23:34:48.919Z,99.90
2022-08-29T23:37:15.552Z,99.90
2022-08-29T23:39:42.153Z,99.90
2022-08-29T23:42:08.734Z,99.90
2022-08-29T23:44:35.740Z,99.90
2022-08-29T23:47:02.325Z,99.90
2022-08-29T23:49:28.959Z,99.90
2022-08-29T23:51:55.593Z,99.90
2022-08-29T23:54:22.178Z,99.90
2022-08-29T23:56:48.752Z,99.90
